Wetterdaten: Woche 12.12.16 - 18.12.16 (KW50)
Datum Zeit Temp. Aussen Temp. o. S. +5cm Feuchte Auss BlattFeu 1 Luftdruck Regen Sonnenschein Regendauer Solar Windben Empfang
12.12.2016 00:00 7,6 C 7,8 C 6,1 C 94 % 0 lf 1022,2 hPa 0,0 l/m 0,00 h 0,00 h 5 W/m 16,6 km/h (3 Bft) 93,63 %
12.12.2016 01:00 7,4 C 7,6 C 6,0 C 94 % 0 lf 1022,4 hPa 0,0 l/m 0,00 h 0,00 h 5 W/m 13,8 km/h (3 Bft) 96,58 %
12.12.2016 02:00 7,2 C 7,2 C 5,5 C 95 % 1 lf 1022,8 hPa 0,0 l/m 0,00 h 0,07 h 5 W/m 11,5 km/h (2 Bft) 95,21 %
12.12.2016 03:00 7,1 C 7,0 C 5,3 C 95 % 1 lf 1022,9 hPa 0,0 l/m 0,00 h 0,00 h 5 W/m 10,8 km/h (2 Bft) 95,58 %
12.12.2016 04:00 6,5 C 6,1 C 4,4 C 95 % 2 lf 1023,2 hPa 0,0 l/m 0,00 h 0,00 h 5 W/m 7,6 km/h (2 Bft) 96,81 %
12.12.2016 05:00 6,3 C 6,0 C 4,5 C 96 % 2 lf 1023,4 hPa 0,0 l/m 0,00 h 0,00 h 5 W/m 7,6 km/h (2 Bft) 96,86 %
12.12.2016 06:00 6,4 C 6,7 C 5,0 C 96 % 1 lf 1023,7 hPa 0,0 l/m 0,00 h 0,00 h 5 W/m 9,1 km/h (2 Bft) 95,22 %
12.12.2016 07:00 6,7 C 6,7 C 5,4 C 97 % 1 lf 1024,0 hPa 0,0 l/m 0,00 h 0,00 h 5 W/m 8,5 km/h (2 Bft) 94,89 %
12.12.2016 08:00 6,6 C 6,7 C 5,3 C 97 % 1 lf 1024,6 hPa 0,0 l/m 0,00 h 0,00 h 8 W/m 7,2 km/h (2 Bft) 97,22 %
12.12.2016 09:00 6,6 C 7,2 C 5,4 C 97 % 1 lf 1025,0 hPa 0,0 l/m 0,00 h 0,00 h 42 W/m 1,7 km/h (1 Bft) 96,31 %
12.12.2016 10:00 6,9 C 8,1 C 6,8 C 97 % 0 lf 1025,5 hPa 0,0 l/m 0,00 h 0,00 h 61 W/m 7,2 km/h (2 Bft) 93,49 %
12.12.2016 11:00 7,3 C 8,3 C 7,1 C 98 % 0 lf 1025,6 hPa 0,0 l/m 0,00 h 0,00 h 58 W/m 8,7 km/h (2 Bft) 97,81 %
12.12.2016 12:00 7,6 C 8,3 C 7,1 C 97 % 0 lf 1025,5 hPa 0,0 l/m 0,00 h 0,00 h 43 W/m 9,3 km/h (2 Bft) 95,07 %
12.12.2016 13:00 7,4 C 8,0 C 6,8 C 96 % 0 lf 1025,3 hPa 0,0 l/m 0,00 h 0,00 h 34 W/m 7,7 km/h (2 Bft) 97,21 %
12.12.2016 14:00 7,2 C 7,8 C 6,3 C 95 % 0 lf 1025,3 hPa 0,0 l/m 0,00 h 0,00 h 20 W/m 4,8 km/h (1 Bft) 95,87 %
12.12.2016 15:00 7,2 C 7,5 C 6,1 C 93 % 0 lf 1025,4 hPa 0,0 l/m 0,00 h 0,00 h 15 W/m 1,5 km/h (1 Bft) 94,92 %
12.12.2016 16:00 6,9 C 6,2 C 3,4 C 93 % 1 lf 1025,2 hPa 0,0 l/m 0,00 h 0,00 h 8 W/m 3,4 km/h (1 Bft) 97,07 %
12.12.2016 17:00 5,5 C 4,0 C 1,4 C 91 % 8 lf 1025,3 hPa 0,0 l/m 0,00 h 0,00 h 5 W/m 1,8 km/h (1 Bft) 98,17 %
12.12.2016 18:00 4,6 C 4,5 C 2,6 C 92 % 15 lf 1025,4 hPa 0,0 l/m 0,00 h 0,00 h 5 W/m 2,0 km/h (1 Bft) 92,93 %
12.12.2016 19:00 5,1 C 5,6 C 3,9 C 95 % 14 lf 1025,3 hPa 0,0 l/m 0,00 h 0,00 h 5 W/m 2,2 km/h (1 Bft) 96,57 %
12.12.2016 20:00 5,5 C 6,1 C 4,3 C 96 % 3 lf 1025,1 hPa 0,0 l/m 0,00 h 0,00 h 5 W/m 2,0 km/h (1 Bft) 96,43 %
12.12.2016 21:00 5,7 C 6,0 C 3,9 C 96 % 1 lf 1024,9 hPa 0,0 l/m 0,00 h 0,00 h 5 W/m 6,0 km/h (2 Bft) 95,51 %
12.12.2016 22:00 5,4 C 5,2 C 2,6 C 96 % 3 lf 1024,8 hPa 0,0 l/m 0,00 h 0,00 h 5 W/m 5,4 km/h (1 Bft) 96,13 %
12.12.2016 23:00 5,0 C 5,0 C 2,9 C 96 % 4 lf 1024,8 hPa 0,0 l/m 0,00 h 0,00 h 5 W/m 6,4 km/h (2 Bft) 94,37 %
13.12.2016 00:00 4,8 C 4,8 C 2,6 C 97 % 3 lf 1024,6 hPa 0,0 l/m 0,00 h 0,00 h 5 W/m 7,5 km/h (2 Bft) 97,07 %
13.12.2016 01:00 4,2 C 4,0 C 1,3 C 96 % 6 lf 1024,1 hPa 0,0 l/m 0,00 h 0,00 h 4 W/m 7,8 km/h (2 Bft) 96,08 %
13.12.2016 02:00 3,4 C 2,9 C 0,0 C 96 % 12 lf 1023,8 hPa 0,0 l/m 0,00 h 0,00 h 5 W/m 5,6 km/h (1 Bft) 97,57 %
13.12.2016 03:00 2,9 C 3,2 C 1,2 C 96 % 15 lf 1023,5 hPa 0,0 l/m 0,00 h 0,00 h 0 W/m 5,9 km/h (2 Bft) 94,23 %
13.12.2016 04:00 3,4 C 4,2 C 2,5 C 96 % 2 lf 1023,4 hPa 0,0 l/m 0,00 h 0,00 h 0 W/m 7,6 km/h (2 Bft) 94,92 %
13.12.2016 05:00 4,0 C 4,7 C 3,2 C 96 % 0 lf 1023,3 hPa 0,0 l/m 0,00 h 0,00 h 0 W/m 9,5 km/h (2 Bft) 97,37 %
13.12.2016 06:00 4,5 C 5,0 C 3,6 C 96 % 0 lf 1023,2 hPa 0,0 l/m 0,00 h 0,00 h 0 W/m 7,6 km/h (2 Bft) 95,54 %
13.12.2016 07:00 4,8 C 5,3 C 3,9 C 95 % 0 lf 1023,1 hPa 0,0 l/m 0,00 h 0,00 h 0 W/m 9,2 km/h (2 Bft) 94,23 %
13.12.2016 08:00 5,0 C 4,7 C 3,5 C 94 % 6 lf 1023,4 hPa 1,0 l/m 0,00 h 0,83 h 6 W/m 7,9 km/h (2 Bft) 97,94 %
13.12.2016 09:00 4,9 C 4,9 C 3,7 C 95 % 15 lf 1023,5 hPa 0,8 l/m 0,00 h 0,77 h 12 W/m 7,3 km/h (2 Bft) 94,80 %
13.12.2016 10:00 5,1 C 5,3 C 4,3 C 96 % 15 lf 1023,6 hPa 0,0 l/m 0,00 h 0,17 h 46 W/m 8,3 km/h (2 Bft) 96,94 %
13.12.2016 11:00 5,6 C 5,7 C 5,0 C 97 % 6 lf 1023,5 hPa 0,2 l/m 0,00 h 0,50 h 48 W/m 8,5 km/h (2 Bft) 94,95 %
13.12.2016 12:00 6,1 C 6,5 C 5,8 C 98 % 4 lf 1023,3 hPa 0,2 l/m 0,00 h 0,03 h 75 W/m 8,0 km/h (2 Bft) 94,62 %
13.12.2016 13:00 6,5 C 6,7 C 5,9 C 98 % 0 lf 1022,9 hPa 0,0 l/m 0,00 h 0,00 h 58 W/m 8,9 km/h (2 Bft) 97,58 %
13.12.2016 14:00 6,7 C 7,0 C 6,1 C 98 % 0 lf 1022,6 hPa 0,0 l/m 0,00 h 0,03 h 50 W/m 7,8 km/h (2 Bft) 96,09 %
13.12.2016 15:00 6,7 C 6,7 C 5,7 C 98 % 1 lf 1022,4 hPa 0,0 l/m 0,00 h 0,00 h 20 W/m 7,2 km/h (2 Bft) 94,37 %
13.12.2016 16:00 6,6 C 6,7 C 5,2 C 98 % 1 lf 1022,4 hPa 0,0 l/m 0,00 h 0,00 h 7 W/m 8,5 km/h (2 Bft) 96,36 %
13.12.2016 17:00 6,4 C 6,7 C 5,0 C 98 % 1 lf 1022,6 hPa 0,0 l/m 0,00 h 0,00 h 0 W/m 7,7 km/h (2 Bft) 96,86 %
13.12.2016 18:00 6,4 C 6,7 C 5,0 C 99 % 1 lf 1022,6 hPa 0,0 l/m 0,00 h 0,00 h 0 W/m 6,2 km/h (2 Bft) 95,84 %
13.12.2016 19:00 6,4 C 6,5 C 5,0 C 99 % 1 lf 1022,5 hPa 0,0 l/m 0,00 h 0,00 h 0 W/m 6,9 km/h (2 Bft) 94,73 %
13.12.2016 20:00 6,4 C 6,4 C 5,0 C 99 % 8 lf 1022,4 hPa 0,0 l/m 0,00 h 0,00 h 0 W/m 8,2 km/h (2 Bft) 96,51 %
13.12.2016 21:00 6,4 C 6,7 C 5,0 C 99 % 15 lf 1022,6 hPa 0,2 l/m 0,00 h 0,37 h 0 W/m 8,0 km/h (2 Bft) 96,30 %
13.12.2016 22:00 6,4 C 6,7 C 5,5 C 99 % 15 lf 1022,7 hPa 0,4 l/m 0,00 h 0,73 h 0 W/m 8,6 km/h (2 Bft) 96,08 %
13.12.2016 23:00 6,5 C 6,7 C 5,6 C 99 % 15 lf 1022,5 hPa 0,6 l/m 0,00 h 0,73 h 0 W/m 7,8 km/h (2 Bft) 96,58 %
14.12.2016 00:00 6,8 C 7,0 C 5,7 C 99 % 15 lf 1022,3 hPa 0,6 l/m 0,00 h 0,70 h 0 W/m 5,1 km/h (1 Bft) 94,85 %
14.12.2016 01:00 7,1 C 7,2 C 5,7 C 99 % 15 lf 1022,2 hPa 0,0 l/m 0,00 h 0,03 h 0 W/m 4,8 km/h (1 Bft) 95,87 %
14.12.2016 02:00 6,9 C 7,2 C 5,6 C 99 % 15 lf 1022,2 hPa 0,0 l/m 0,00 h 0,00 h 0 W/m 3,9 km/h (1 Bft) 98,93 %
14.12.2016 03:00 6,8 C 6,7 C 5,6 C 99 % 15 lf 1022,1 hPa 0,0 l/m 0,00 h 0,00 h 0 W/m 6,7 km/h (2 Bft) 92,88 %
14.12.2016 04:00 6,8 C 7,0 C 5,6 C 99 % 15 lf 1022,1 hPa 0,0 l/m 0,00 h 0,00 h 0 W/m 5,5 km/h (1 Bft) 97,22 %
14.12.2016 05:00 6,8 C 7,2 C 5,6 C 99 % 15 lf 1022,0 hPa 0,0 l/m 0,00 h 0,00 h 0 W/m 6,7 km/h (2 Bft) 97,79 %
14.12.2016 06:00 6,8 C 7,1 C 5,7 C 99 % 15 lf 1021,9 hPa 0,0 l/m 0,00 h 0,00 h 0 W/m 8,7 km/h (2 Bft) 94,92 %
14.12.2016 07:00 7,0 C 7,2 C 6,1 C 99 % 15 lf 1022,0 hPa 0,0 l/m 0,00 h 0,00 h 0 W/m 7,8 km/h (2 Bft) 95,80 %
14.12.2016 08:00 6,8 C 6,9 C 5,6 C 99 % 15 lf 1022,3 hPa 0,0 l/m 0,00 h 0,00 h 10 W/m 9,4 km/h (2 Bft) 96,23 %
14.12.2016 09:00 6,8 C 7,1 C 6,1 C 99 % 15 lf 1022,5 hPa 0,0 l/m 0,17 h 0,00 h 46 W/m 11,0 km/h (2 Bft) 95,23 %
14.12.2016 10:00 7,4 C 9,3 C 7,5 C 99 % 9 lf 1022,9 hPa 0,2 l/m 1,00 h 0,00 h 168 W/m 10,2 km/h (2 Bft) 97,65 %
14.12.2016 11:00 8,2 C 10,6 C 9,0 C 100 % 0 lf 1023,2 hPa 0,0 l/m 1,00 h 0,00 h 182 W/m 11,5 km/h (2 Bft) 95,02 %
14.12.2016 12:00 8,8 C 11,9 C 9,1 C 99 % 0 lf 1023,1 hPa 0,0 l/m 0,90 h 0,00 h 210 W/m 14,0 km/h (3 Bft) 95,10 %
14.12.2016 13:00 10,0 C 13,8 C 9,5 C 97 % 0 lf 1022,8 hPa 0,0 l/m 1,00 h 0,00 h 233 W/m 13,9 km/h (3 Bft) 97,29 %
14.12.2016 14:00 10,3 C 12,2 C 8,5 C 90 % 0 lf 1022,8 hPa 0,0 l/m 0,93 h 0,00 h 117 W/m 13,3 km/h (3 Bft) 96,02 %
14.12.2016 15:00 9,4 C 9,3 C 7,2 C 90 % 0 lf 1023,0 hPa 0,0 l/m 0,23 h 0,00 h 51 W/m 15,7 km/h (3 Bft) 95,01 %
14.12.2016 16:00 8,5 C 7,8 C 5,4 C 92 % 1 lf 1023,4 hPa 0,0 l/m 0,23 h 0,00 h 18 W/m 8,5 km/h (2 Bft) 98,43 %
14.12.2016 17:00 7,6 C 6,8 C 4,0 C 93 % 9 lf 1023,7 hPa 0,0 l/m 0,00 h 0,00 h 0 W/m 6,4 km/h (2 Bft) 94,66 %
14.12.2016 18:00 7,1 C 6,9 C 4,4 C 95 % 15 lf 1023,5 hPa 0,0 l/m 0,00 h 0,00 h 0 W/m 10,6 km/h (2 Bft) 95,66 %
14.12.2016 19:00 7,0 C 6,9 C 4,4 C 96 % 15 lf 1023,8 hPa 0,0 l/m 0,00 h 0,00 h 0 W/m 11,5 km/h (2 Bft) 96,94 %
14.12.2016 20:00 6,6 C 6,3 C 3,9 C 97 % 15 lf 1024,1 hPa 0,0 l/m 0,00 h 0,00 h 0 W/m 10,4 km/h (2 Bft) 94,95 %
14.12.2016 21:00 6,2 C 6,1 C 3,9 C 97 % 15 lf 1024,4 hPa 0,0 l/m 0,00 h 0,00 h 0 W/m 11,5 km/h (2 Bft) 97,15 %
14.12.2016 22:00 6,7 C 7,0 C 5,4 C 98 % 15 lf 1024,5 hPa 0,0 l/m 0,00 h 0,00 h 0 W/m 17,1 km/h (3 Bft) 95,44 %
14.12.2016 23:00 7,0 C 7,2 C 5,6 C 98 % 15 lf 1024,7 hPa 0,0 l/m 0,00 h 0,00 h 0 W/m 15,7 km/h (3 Bft) 94,59 %
15.12.2016 00:00 6,9 C 7,2 C 5,6 C 98 % 15 lf 1024,6 hPa 0,0 l/m 0,00 h 0,00 h 0 W/m 17,3 km/h (3 Bft) 98,08 %
15.12.2016 01:00 6,8 C 6,9 C 5,5 C 98 % 14 lf 1024,7 hPa 0,0 l/m 0,00 h 0,00 h 0 W/m 17,8 km/h (3 Bft) 96,34 %
15.12.2016 02:00 6,4 C 6,7 C 5,0 C 98 % 2 lf 1024,8 hPa 0,0 l/m 0,00 h 0,00 h 0 W/m 17,8 km/h (3 Bft) 93,81 %
15.12.2016 03:00 6,4 C 6,7 C 5,0 C 99 % 1 lf 1024,8 hPa 0,0 l/m 0,00 h 0,00 h 0 W/m 17,6 km/h (3 Bft) 96,72 %
15.12.2016 04:00 6,4 C 6,7 C 5,6 C 99 % 1 lf 1024,7 hPa 0,0 l/m 0,00 h 0,00 h 0 W/m 18,6 km/h (3 Bft) 96,84 %
15.12.2016 05:00 6,4 C 6,7 C 5,6 C 99 % 1 lf 1024,8 hPa 0,0 l/m 0,00 h 0,00 h 0 W/m 21,1 km/h (4 Bft) 96,72 %
15.12.2016 06:00 6,4 C 6,7 C 5,6 C 98 % 1 lf 1024,9 hPa 0,0 l/m 0,00 h 0,00 h 0 W/m 21,1 km/h (4 Bft) 93,89 %
15.12.2016 07:00 6,3 C 6,7 C 5,2 C 98 % 1 lf 1024,9 hPa 0,0 l/m 0,00 h 0,00 h 0 W/m 22,8 km/h (4 Bft) 97,58 %
15.12.2016 08:00 6,3 C 6,7 C 5,1 C 98 % 1 lf 1025,1 hPa 0,0 l/m 0,00 h 0,00 h 11 W/m 24,6 km/h (4 Bft) 95,53 %
15.12.2016 09:00 6,4 C 6,9 C 5,6 C 98 % 0 lf 1025,2 hPa 0,0 l/m 0,00 h 0,00 h 28 W/m 27,5 km/h (4 Bft) 97,06 %
15.12.2016 10:00 6,9 C 7,6 C 6,4 C 97 % 0 lf 1025,2 hPa 0,0 l/m 0,00 h 0,00 h 51 W/m 23,4 km/h (4 Bft) 95,28 %
15.12.2016 11:00 7,5 C 8,2 C 7,1 C 95 % 0 lf 1025,1 hPa 0,0 l/m 0,00 h 0,00 h 66 W/m 22,3 km/h (4 Bft) 95,52 %
15.12.2016 12:00 7,9 C 8,6 C 7,7 C 94 % 0 lf 1024,6 hPa 0,0 l/m 0,00 h 0,00 h 79 W/m 20,8 km/h (4 Bft) 96,00 %
15.12.2016 13:00 8,3 C 8,9 C 7,8 C 92 % 0 lf 1024,1 hPa 0,0 l/m 0,00 h 0,00 h 82 W/m 24,2 km/h (4 Bft) 98,70 %
15.12.2016 14:00 8,6 C 9,1 C 7,8 C 89 % 0 lf 1023,8 hPa 0,0 l/m 0,00 h 0,00 h 66 W/m 24,0 km/h (4 Bft) 92,38 %
15.12.2016 15:00 8,6 C 8,9 C 7,2 C 89 % 0 lf 1023,6 hPa 0,0 l/m 0,00 h 0,00 h 31 W/m 21,3 km/h (4 Bft) 97,22 %
15.12.2016 16:00 8,5 C 8,7 C 7,2 C 89 % 0 lf 1023,5 hPa 0,0 l/m 0,00 h 0,00 h 14 W/m 22,9 km/h (4 Bft) 97,59 %
15.12.2016 17:00 8,3 C 8,3 C 6,9 C 90 % 0 lf 1023,4 hPa 0,0 l/m 0,00 h 0,00 h 0 W/m 22,7 km/h (4 Bft) 94,22 %
15.12.2016 18:00 8,1 C 8,3 C 6,7 C 90 % 0 lf 1023,6 hPa 0,0 l/m 0,00 h 0,00 h 0 W/m 20,5 km/h (4 Bft) 95,75 %
15.12.2016 19:00 8,0 C 8,3 C 6,7 C 90 % 0 lf 1023,6 hPa 0,0 l/m 0,00 h 0,00 h 0 W/m 24,4 km/h (4 Bft) 97,36 %
15.12.2016 20:00 7,8 C 8,1 C 6,7 C 89 % 0 lf 1023,6 hPa 0,0 l/m 0,00 h 0,00 h 0 W/m 25,6 km/h (4 Bft) 94,49 %
15.12.2016 21:00 7,6 C 7,6 C 5,8 C 89 % 0 lf 1023,6 hPa 0,0 l/m 0,00 h 0,00 h 0 W/m 27,1 km/h (4 Bft) 97,39 %
15.12.2016 22:00 7,0 C 7,0 C 5,2 C 89 % 0 lf 1023,6 hPa 0,0 l/m 0,00 h 0,00 h 0 W/m 25,7 km/h (4 Bft) 94,80 %
15.12.2016 23:00 6,5 C 6,4 C 4,5 C 90 % 0 lf 1023,7 hPa 0,0 l/m 0,00 h 0,00 h 0 W/m 24,5 km/h (4 Bft) 94,88 %
16.12.2016 00:00 5,9 C 6,0 C 3,9 C 91 % 0 lf 1023,9 hPa 0,0 l/m 0,00 h 0,00 h 0 W/m 25,0 km/h (4 Bft) 97,92 %
16.12.2016 01:00 5,6 C 5,7 C 3,9 C 91 % 0 lf 1023,9 hPa 0,0 l/m 0,00 h 0,00 h 0 W/m 25,2 km/h (4 Bft) 95,31 %
16.12.2016 02:00 5,5 C 5,6 C 3,9 C 91 % 0 lf 1024,2 hPa 0,0 l/m 0,00 h 0,00 h 0 W/m 27,7 km/h (4 Bft) 94,66 %
16.12.2016 03:00 5,4 C 5,6 C 3,8 C 90 % 0 lf 1024,2 hPa 0,0 l/m 0,00 h 0,00 h 0 W/m 30,2 km/h (5 Bft) 96,05 %
16.12.2016 04:00 5,0 C 5,1 C 3,3 C 90 % 0 lf 1024,3 hPa 0,0 l/m 0,00 h 0,00 h 0 W/m 30,1 km/h (5 Bft) 98,23 %
16.12.2016 05:00 4,6 C 4,7 C 2,9 C 90 % 0 lf 1024,6 hPa 0,0 l/m 0,00 h 0,00 h 0 W/m 25,9 km/h (4 Bft) 95,50 %
16.12.2016 06:00 4,2 C 4,3 C 2,3 C 91 % 0 lf 1025,0 hPa 0,0 l/m 0,00 h 0,00 h 0 W/m 22,3 km/h (4 Bft) 94,94 %
16.12.2016 07:00 3,8 C 3,9 C 2,2 C 92 % 0 lf 1025,5 hPa 0,0 l/m 0,00 h 0,00 h 0 W/m 22,2 km/h (4 Bft) 96,61 %
16.12.2016 08:00 3,7 C 3,9 C 2,2 C 92 % 0 lf 1026,0 hPa 0,0 l/m 0,20 h 0,00 h 17 W/m 22,3 km/h (4 Bft) 96,13 %
16.12.2016 09:00 4,0 C 4,6 C 2,8 C 92 % 0 lf 1026,6 hPa 0,0 l/m 0,90 h 0,00 h 61 W/m 25,4 km/h (4 Bft) 96,68 %
16.12.2016 10:00 4,7 C 5,5 C 3,7 C 90 % 0 lf 1027,1 hPa 0,0 l/m 1,00 h 0,00 h 127 W/m 30,1 km/h (5 Bft) 95,51 %
16.12.2016 11:00 5,5 C 8,2 C 4,3 C 87 % 0 lf 1027,1 hPa 0,0 l/m 1,00 h 0,00 h 192 W/m 29,2 km/h (5 Bft) 92,76 %
16.12.2016 12:00 6,1 C 8,1 C 5,0 C 85 % 0 lf 1027,2 hPa 0,0 l/m 0,97 h 0,00 h 219 W/m 27,7 km/h (4 Bft) 97,68 %
16.12.2016 13:00 6,4 C 8,5 C 5,5 C 84 % 0 lf 1027,5 hPa 0,0 l/m 1,00 h 0,00 h 186 W/m 25,8 km/h (4 Bft) 95,35 %
16.12.2016 14:00 6,3 C 7,7 C 4,8 C 83 % 0 lf 1027,8 hPa 0,0 l/m 0,77 h 0,00 h 110 W/m 22,8 km/h (4 Bft) 96,75 %
16.12.2016 15:00 5,6 C 5,8 C 3,8 C 85 % 0 lf 1028,5 hPa 0,0 l/m 0,20 h 0,00 h 47 W/m 17,4 km/h (3 Bft) 96,83 %
16.12.2016 16:00 4,7 C 4,6 C 2,6 C 86 % 0 lf 1029,2 hPa 0,0 l/m 0,23 h 0,00 h 16 W/m 17,3 km/h (3 Bft) 93,46 %
16.12.2016 17:00 4,0 C 3,9 C 2,0 C 88 % 0 lf 1029,7 hPa 0,0 l/m 0,00 h 0,00 h 0 W/m 17,6 km/h (3 Bft) 96,78 %
16.12.2016 18:00 3,5 C 3,4 C 1,7 C 90 % 0 lf 1030,0 hPa 0,0 l/m 0,00 h 0,00 h 0 W/m 19,0 km/h (3 Bft) 96,25 %
16.12.2016 19:00 3,1 C 3,3 C 1,2 C 91 % 0 lf 1030,5 hPa 0,0 l/m 0,00 h 0,00 h 0 W/m 18,9 km/h (3 Bft) 96,11 %
16.12.2016 20:00 2,8 C 2,9 C 1,1 C 92 % 0 lf 1031,0 hPa 0,0 l/m 0,00 h 0,00 h 0 W/m 18,3 km/h (3 Bft) 94,96 %
16.12.2016 21:00 2,6 C 2,8 C 1,0 C 92 % 0 lf 1031,4 hPa 0,0 l/m 0,00 h 0,00 h 0 W/m 17,8 km/h (3 Bft) 96,65 %
16.12.2016 22:00 2,4 C 2,8 C 0,8 C 93 % 0 lf 1031,6 hPa 0,0 l/m 0,00 h 0,00 h 0 W/m 18,1 km/h (3 Bft) 95,31 %
16.12.2016 23:00 2,5 C 3,0 C 1,5 C 93 % 0 lf 1032,2 hPa 0,0 l/m 0,00 h 0,00 h 0 W/m 17,0 km/h (3 Bft) 96,41 %
17.12.2016 00:00 2,9 C 3,3 C 1,9 C 93 % 0 lf 1032,8 hPa 0,0 l/m 0,00 h 0,00 h 0 W/m 19,1 km/h (3 Bft) 97,17 %
17.12.2016 01:00 2,9 C 3,3 C 1,7 C 92 % 0 lf 1033,1 hPa 0,0 l/m 0,00 h 0,00 h 0 W/m 15,3 km/h (3 Bft) 92,54 %
17.12.2016 02:00 3,0 C 3,3 C 1,8 C 93 % 0 lf 1033,4 hPa 0,0 l/m 0,00 h 0,00 h 0 W/m 14,2 km/h (3 Bft) 98,65 %
17.12.2016 03:00 3,1 C 3,3 C 2,1 C 93 % 0 lf 1033,5 hPa 0,0 l/m 0,00 h 0,00 h 0 W/m 14,1 km/h (3 Bft) 96,36 %
17.12.2016 04:00 3,2 C 3,3 C 2,1 C 92 % 0 lf 1033,8 hPa 0,0 l/m 0,00 h 0,00 h 0 W/m 11,6 km/h (2 Bft) 95,25 %
17.12.2016 05:00 2,8 C 2,8 C 0,9 C 92 % 0 lf 1033,8 hPa 0,0 l/m 0,00 h 0,00 h 0 W/m 9,9 km/h (2 Bft) 94,88 %
17.12.2016 06:00 2,2 C 2,2 C 0,3 C 93 % 0 lf 1034,2 hPa 0,0 l/m 0,00 h 0,00 h 5 W/m 9,3 km/h (2 Bft) 96,97 %
17.12.2016 07:00 2,0 C 2,2 C 0,8 C 94 % 0 lf 1034,7 hPa 0,0 l/m 0,00 h 0,00 h 5 W/m 9,2 km/h (2 Bft) 95,67 %
17.12.2016 08:00 2,1 C 2,6 C 1,2 C 94 % 0 lf 1035,4 hPa 0,0 l/m 0,00 h 0,00 h 7 W/m 5,0 km/h (1 Bft) 97,45 %
17.12.2016 09:00 2,5 C 3,1 C 2,0 C 94 % 0 lf 1036,1 hPa 0,0 l/m 0,00 h 0,00 h 31 W/m 8,0 km/h (2 Bft) 94,67 %
17.12.2016 10:00 3,2 C 4,6 C 2,9 C 94 % 0 lf 1036,6 hPa 0,0 l/m 0,60 h 0,00 h 117 W/m 9,2 km/h (2 Bft) 95,34 %
17.12.2016 11:00 4,5 C 7,4 C 3,9 C 93 % 0 lf 1036,6 hPa 0,0 l/m 1,00 h 0,00 h 165 W/m 10,0 km/h (2 Bft) 96,51 %
17.12.2016 12:00 5,8 C 7,3 C 5,5 C 90 % 0 lf 1036,4 hPa 0,0 l/m 0,03 h 0,00 h 106 W/m 10,5 km/h (2 Bft) 95,21 %
17.12.2016 13:00 5,9 C 6,7 C 5,5 C 89 % 0 lf 1036,5 hPa 0,0 l/m 0,00 h 0,00 h 54 W/m 10,3 km/h (2 Bft) 95,66 %
17.12.2016 14:00 6,1 C 6,6 C 5,4 C 90 % 0 lf 1036,5 hPa 0,0 l/m 0,00 h 0,00 h 40 W/m 8,0 km/h (2 Bft) 97,65 %
17.12.2016 15:00 5,9 C 6,1 C 4,7 C 92 % 0 lf 1036,7 hPa 0,0 l/m 0,00 h 0,00 h 19 W/m 9,7 km/h (2 Bft) 95,73 %
17.12.2016 16:00 5,6 C 5,6 C 4,4 C 94 % 0 lf 1037,2 hPa 0,0 l/m 0,00 h 0,00 h 7 W/m 6,9 km/h (2 Bft) 95,37 %
17.12.2016 17:00 5,5 C 5,6 C 4,2 C 95 % 2 lf 1037,5 hPa 0,0 l/m 0,00 h 0,00 h 5 W/m 8,3 km/h (2 Bft) 95,52 %
17.12.2016 18:00 5,4 C 5,6 C 4,0 C 96 % 15 lf 1037,7 hPa 0,0 l/m 0,00 h 0,00 h 5 W/m 6,1 km/h (2 Bft) 97,04 %
17.12.2016 19:00 5,5 C 5,6 C 4,4 C 97 % 15 lf 1037,9 hPa 0,0 l/m 0,00 h 0,00 h 5 W/m 3,8 km/h (1 Bft) 96,57 %
17.12.2016 20:00 5,7 C 5,7 C 4,4 C 97 % 15 lf 1038,4 hPa 0,0 l/m 0,00 h 0,07 h 5 W/m 4,7 km/h (1 Bft) 95,30 %
17.12.2016 21:00 5,8 C 6,0 C 4,4 C 97 % 15 lf 1038,7 hPa 0,0 l/m 0,00 h 0,00 h 5 W/m 1,3 km/h (1 Bft) 96,37 %
17.12.2016 22:00 5,8 C 6,1 C 4,4 C 97 % 15 lf 1038,3 hPa 0,0 l/m 0,00 h 0,03 h 5 W/m 4,8 km/h (1 Bft) 95,23 %
17.12.2016 23:00 6,0 C 6,1 C 4,5 C 98 % 15 lf 1037,7 hPa 0,0 l/m 0,00 h 0,00 h 5 W/m 6,2 km/h (2 Bft) 98,79 %
18.12.2016 00:00 6,0 C 6,1 C 4,4 C 98 % 15 lf 1037,3 hPa 0,0 l/m 0,00 h 0,00 h 5 W/m 5,7 km/h (1 Bft) 93,92 %
18.12.2016 01:00 6,0 C 6,1 C 4,6 C 98 % 15 lf 1037,4 hPa 0,0 l/m 0,00 h 0,00 h 5 W/m 8,2 km/h (2 Bft) 95,59 %
18.12.2016 02:00 6,0 C 6,0 C 4,4 C 98 % 15 lf 1037,2 hPa 0,2 l/m 0,00 h 0,00 h 5 W/m 8,6 km/h (2 Bft) 97,22 %
18.12.2016 03:00 5,8 C 5,6 C 4,2 C 98 % 15 lf 1036,7 hPa 0,0 l/m 0,00 h 0,00 h 5 W/m 10,3 km/h (2 Bft) 96,30 %
18.12.2016 04:00 5,7 C 5,6 C 4,4 C 98 % 15 lf 1036,6 hPa 0,0 l/m 0,00 h 0,00 h 5 W/m 9,8 km/h (2 Bft) 95,49 %
18.12.2016 05:00 5,7 C 5,6 C 4,4 C 98 % 13 lf 1036,4 hPa 0,0 l/m 0,00 h 0,00 h 5 W/m 9,5 km/h (2 Bft) 96,72 %
18.12.2016 06:00 5,7 C 5,6 C 4,4 C 98 % 3 lf 1036,1 hPa 0,0 l/m 0,00 h 0,00 h 5 W/m 9,4 km/h (2 Bft) 95,13 %
18.12.2016 07:00 5,7 C 6,0 C 4,4 C 98 % 2 lf 1036,1 hPa 0,0 l/m 0,00 h 0,00 h 5 W/m 8,7 km/h (2 Bft) 95,22 %
18.12.2016 08:00 5,8 C 6,1 C 4,4 C 98 % 5 lf 1036,1 hPa 0,0 l/m 0,00 h 0,00 h 5 W/m 8,1 km/h (2 Bft) 93,66 %
18.12.2016 09:00 5,8 C 6,2 C 4,7 C 98 % 2 lf 1035,7 hPa 0,0 l/m 0,00 h 0,00 h 18 W/m 8,4 km/h (2 Bft) 93,81 %
18.12.2016 10:00 6,1 C 6,8 C 5,4 C 99 % 1 lf 1035,6 hPa 0,0 l/m 0,00 h 0,00 h 36 W/m 7,9 km/h (2 Bft) 97,43 %
18.12.2016 11:00 6,3 C 7,5 C 6,0 C 99 % 0 lf 1035,2 hPa 0,0 l/m 0,03 h 0,00 h 64 W/m 8,5 km/h (2 Bft) 95,52 %
18.12.2016 12:00 6,8 C 8,7 C 6,9 C 99 % 0 lf 1034,8 hPa 0,0 l/m 0,03 h 0,00 h 108 W/m 8,9 km/h (2 Bft) 96,76 %
18.12.2016 13:00 7,2 C 8,2 C 6,8 C 98 % 0 lf 1034,4 hPa 0,0 l/m 0,00 h 0,00 h 65 W/m 9,3 km/h (2 Bft) 94,38 %
18.12.2016 14:00 7,2 C 8,1 C 6,8 C 96 % 0 lf 1034,0 hPa 0,0 l/m 0,00 h 0,00 h 63 W/m 7,7 km/h (2 Bft) 97,22 %
18.12.2016 15:00 7,1 C 7,2 C 5,7 C 95 % 0 lf 1033,7 hPa 0,0 l/m 0,00 h 0,00 h 25 W/m 6,3 km/h (2 Bft) 96,51 %
18.12.2016 16:00 6,7 C 6,5 C 4,8 C 94 % 0 lf 1033,1 hPa 0,0 l/m 0,00 h 0,00 h 7 W/m 4,3 km/h (1 Bft) 95,09 %
18.12.2016 17:00 6,2 C 5,5 C 3,5 C 94 % 2 lf 1032,6 hPa 0,0 l/m 0,00 h 0,00 h 5 W/m 5,2 km/h (1 Bft) 96,16 %
18.12.2016 18:00 5,6 C 5,0 C 2,8 C 94 % 6 lf 1032,1 hPa 0,0 l/m 0,00 h 0,00 h 5 W/m 2,2 km/h (1 Bft) 97,38 %
18.12.2016 19:00 5,0 C 4,9 C 3,2 C 95 % 13 lf 1032,1 hPa 0,0 l/m 0,00 h 0,00 h 5 W/m 0,0 km/h (0 Bft) 94,02 %
18.12.2016 20:00 5,2 C 5,6 C 3,9 C 96 % 13 lf 1032,1 hPa 0,0 l/m 0,00 h 0,00 h 5 W/m 0,0 km/h (0 Bft) 94,95 %
18.12.2016 21:00 5,3 C 5,3 C 3,7 C 96 % 10 lf 1031,8 hPa 0,0 l/m 0,00 h 0,00 h 5 W/m 0,0 km/h (0 Bft) 89,96 %
18.12.2016 22:00 5,4 C 5,6 C 4,0 C 97 % 4 lf 1031,6 hPa 0,0 l/m 0,00 h 0,00 h 5 W/m 0,0 km/h (0 Bft) 92,31 %
18.12.2016 23:00 5,5 C 5,6 C 3,9 C 97 % 4 lf 1031,0 hPa 0,0 l/m 0,00 h 0,00 h 5 W/m 0,8 km/h (0 Bft) 95,08 %
Min-Datum _ 17.12.16 16.12.16 13.12.16 16.12.16 12.12.16 14.12.16 - - - - 12.12.16 12.12.16
_ Min-Zeit 06:58 22:40 02:54 13:52 00:00 05:54 - - - - 09:24 00:02
Minimum _ 2,0 C 2,2 C -0,6 C 83 % 0 lf 1021,8 hPa - - - - 0,0 km/h (0 Bft) 9,09 %
Max-Datum _ 14.12.16 14.12.16 14.12.16 14.12.16 12.12.16 17.12.16 13.12.16 14.12.16 12.12.16 14.12.16 16.12.16 12.12.16
_ Max-Zeit 14:12 13:54 13:08 10:10 18:00 21:48 08:22 09:50 02:50 13:06 03:50 00:10
Maximum _ 10,6 C 16,1 C 10,0 C 100 % 15 lf 1038,9 hPa 1,0 l/m 0,03 h 0,03 h 297 W/m 43,9 km/h
SO (6 Bft)
100,00 %
Durchschnitt _ 5,9 C 6,3 C 4,6 C 95 % 4 lf 1027,6 hPa #4,4 l/m #13:26 h #5:08 h 40 W/m 12,2 km/h (2 Bft) 95,87 %
© 2016 W. Hausmann